sensor_id;sensor_type;location;lat;lon;timestamp;temperature;humidity
19330;DHT22;9799;48.214;16.388;2024-03-22T00:00:55;12.70;99.90
19330;DHT22;9799;48.214;16.388;2024-03-22T00:04:16;12.70;99.90
19330;DHT22;9799;48.214;16.388;2024-03-22T00:07:37;12.80;99.90
19330;DHT22;9799;48.214;16.388;2024-03-22T00:10:58;12.80;99.90
19330;DHT22;9799;48.214;16.388;2024-03-22T00:14:20;12.80;99.90
19330;DHT22;9799;48.214;16.388;2024-03-22T00:17:43;12.80;99.90
19330;DHT22;9799;48.214;16.388;2024-03-22T00:21:04;12.80;99.90
19330;DHT22;9799;48.214;16.388;2024-03-22T00:24:25;12.90;99.90
19330;DHT22;9799;48.214;16.388;2024-03-22T00:27:46;12.80;99.90
19330;DHT22;9799;48.214;16.388;2024-03-22T00:31:09;12.80;99.90
19330;DHT22;9799;48.214;16.388;2024-03-22T00:34:29;12.80;99.90
19330;DHT22;9799;48.214;16.388;2024-03-22T00:37:51;12.80;99.90
19330;DHT22;9799;48.214;16.388;2024-03-22T00:41:11;12.70;99.90
19330;DHT22;9799;48.214;16.388;2024-03-22T00:44:32;12.70;99.90
19330;DHT22;9799;48.214;16.388;2024-03-22T00:47:54;12.80;99.90
19330;DHT22;9799;48.214;16.388;2024-03-22T00:51:15;12.70;99.90
19330;DHT22;9799;48.214;16.388;2024-03-22T00:54:36;12.70;99.90
19330;DHT22;9799;48.214;16.388;2024-03-22T00:57:59;12.80;99.90
19330;DHT22;9799;48.214;16.388;2024-03-22T01:01:20;12.80;99.90
19330;DHT22;9799;48.214;16.388;2024-03-22T01:04:43;12.80;99.90
19330;DHT22;9799;48.214;16.388;2024-03-22T01:08:04;12.80;99.90
19330;DHT22;9799;48.214;16.388;2024-03-22T01:11:25;12.80;99.90
19330;DHT22;9799;48.214;16.388;2024-03-22T01:14:46;12.80;99.90
19330;DHT22;9799;48.214;16.388;2024-03-22T01:18:08;12.80;99.90
19330;DHT22;9799;48.214;16.388;2024-03-22T01:21:30;12.80;99.90
19330;DHT22;9799;48.214;16.388;2024-03-22T01:24:50;12.80;99.90
19330;DHT22;9799;48.214;16.388;2024-03-22T01:28:12;12.70;99.90
19330;DHT22;9799;48.214;16.388;2024-03-22T01:31:33;12.80;99.90
19330;DHT22;9799;48.214;16.388;2024-03-22T01:34:53;12.80;99.90
19330;DHT22;9799;48.214;16.388;2024-03-22T01:38:15;12.80;99.90
19330;DHT22;9799;48.214;16.388;2024-03-22T01:41:35;12.70;99.90
19330;DHT22;9799;48.214;16.388;2024-03-22T01:44:57;12.70;99.90
19330;DHT22;9799;48.214;16.388;2024-03-22T01:48:17;12.70;99.90
19330;DHT22;9799;48.214;16.388;2024-03-22T01:51:39;12.70;99.90
19330;DHT22;9799;48.214;16.388;2024-03-22T01:55:03;12.60;99.90
19330;DHT22;9799;48.214;16.388;2024-03-22T01:58:26;12.70;99.90
19330;DHT22;9799;48.214;16.388;2024-03-22T02:01:47;12.70;99.90
19330;DHT22;9799;48.214;16.388;2024-03-22T02:05:13;12.70;99.90
19330;DHT22;9799;48.214;16.388;2024-03-22T02:08:33;12.70;99.90
19330;DHT22;9799;48.214;16.388;2024-03-22T02:11:56;12.70;99.90
19330;DHT22;9799;48.214;16.388;2024-03-22T02:15:17;12.70;99.90
19330;DHT22;9799;48.214;16.388;2024-03-22T02:18:37;12.70;99.90
19330;DHT22;9799;48.214;16.388;2024-03-22T02:21:59;12.70;99.90
19330;DHT22;9799;48.214;16.388;2024-03-22T02:25:21;12.60;99.90
19330;DHT22;9799;48.214;16.388;2024-03-22T02:28:41;12.70;99.90
19330;DHT22;9799;48.214;16.388;2024-03-22T02:32:03;12.70;99.90
19330;DHT22;9799;48.214;16.388;2024-03-22T02:35:23;12.60;99.90
19330;DHT22;9799;48.214;16.388;2024-03-22T02:38:45;12.50;99.90
19330;DHT22;9799;48.214;16.388;2024-03-22T02:42:07;12.50;99.90
19330;DHT22;9799;48.214;16.388;2024-03-22T02:45:27;12.60;99.90
19330;DHT22;9799;48.214;16.388;2024-03-22T02:48:49;12.60;99.90
19330;DHT22;9799;48.214;16.388;2024-03-22T02:52:10;12.50;99.90
19330;DHT22;9799;48.214;16.388;2024-03-22T02:55:36;12.60;99.90
19330;DHT22;9799;48.214;16.388;2024-03-22T02:58:59;12.70;99.90
19330;DHT22;9799;48.214;16.388;2024-03-22T03:02:20;12.70;99.90
19330;DHT22;9799;48.214;16.388;2024-03-22T03:05:42;12.60;99.90
19330;DHT22;9799;48.214;16.388;2024-03-22T03:09:04;12.60;99.90
19330;DHT22;9799;48.214;16.388;2024-03-22T03:12:25;12.60;99.90
19330;DHT22;9799;48.214;16.388;2024-03-22T03:15:47;12.60;99.90
19330;DHT22;9799;48.214;16.388;2024-03-22T03:19:08;12.60;99.90
19330;DHT22;9799;48.214;16.388;2024-03-22T03:22:29;12.60;99.90
19330;DHT22;9799;48.214;16.388;2024-03-22T03:25:50;12.60;99.90
19330;DHT22;9799;48.214;16.388;2024-03-22T03:29:11;12.50;99.90
19330;DHT22;9799;48.214;16.388;2024-03-22T03:32:33;12.50;99.90
19330;DHT22;9799;48.214;16.388;2024-03-22T03:35:54;12.50;99.90
19330;DHT22;9799;48.214;16.388;2024-03-22T03:39:14;12.50;99.90
19330;DHT22;9799;48.214;16.388;2024-03-22T03:42:35;12.50;99.90
19330;DHT22;9799;48.214;16.388;2024-03-22T03:45:57;12.50;99.90
19330;DHT22;9799;48.214;16.388;2024-03-22T03:49:18;12.60;99.90
19330;DHT22;9799;48.214;16.388;2024-03-22T03:52:40;12.60;99.90
19330;DHT22;9799;48.214;16.388;2024-03-22T03:56:01;12.50;99.90
19330;DHT22;9799;48.214;16.388;2024-03-22T03:59:21;12.50;99.90
19330;DHT22;9799;48.214;16.388;2024-03-22T04:02:43;12.40;99.90
19330;DHT22;9799;48.214;16.388;2024-03-22T04:06:05;12.40;99.90
19330;DHT22;9799;48.214;16.388;2024-03-22T04:09:26;12.40;99.90
19330;DHT22;9799;48.214;16.388;2024-03-22T04:12:47;12.50;99.90
19330;DHT22;9799;48.214;16.388;2024-03-22T04:16:08;12.50;99.90
19330;DHT22;9799;48.214;16.388;2024-03-22T04:19:28;12.50;99.90
19330;DHT22;9799;48.214;16.388;2024-03-22T04:22:51;12.50;99.90
19330;DHT22;9799;48.214;16.388;2024-03-22T04:26:12;12.50;99.90
19330;DHT22;9799;48.214;16.388;2024-03-22T04:29:33;12.50;99.90
19330;DHT22;9799;48.214;16.388;2024-03-22T04:32:53;12.50;99.90
19330;DHT22;9799;48.214;16.388;2024-03-22T04:36:15;12.50;99.90
19330;DHT22;9799;48.214;16.388;2024-03-22T04:39:37;12.50;99.90
19330;DHT22;9799;48.214;16.388;2024-03-22T04:42:58;12.50;99.90
19330;DHT22;9799;48.214;16.388;2024-03-22T04:46:19;12.40;99.90
19330;DHT22;9799;48.214;16.388;2024-03-22T04:49:41;12.40;99.90
19330;DHT22;9799;48.214;16.388;2024-03-22T04:53:01;12.40;99.90
19330;DHT22;9799;48.214;16.388;2024-03-22T04:56:24;12.50;99.90
19330;DHT22;9799;48.214;16.388;2024-03-22T04:59:44;12.50;99.90
19330;DHT22;9799;48.214;16.388;2024-03-22T05:03:05;12.50;99.90
19330;DHT22;9799;48.214;16.388;2024-03-22T05:06:26;12.50;99.90
19330;DHT22;9799;48.214;16.388;2024-03-22T05:09:47;12.50;99.90
19330;DHT22;9799;48.214;16.388;2024-03-22T05:13:09;12.60;99.90
19330;DHT22;9799;48.214;16.388;2024-03-22T05:16:31;12.50;99.90
19330;DHT22;9799;48.214;16.388;2024-03-22T05:19:52;12.50;99.90
19330;DHT22;9799;48.214;16.388;2024-03-22T05:23:12;12.50;99.90
19330;DHT22;9799;48.214;16.388;2024-03-22T05:26:33;12.50;99.90
19330;DHT22;9799;48.214;16.388;2024-03-22T05:29:58;12.50;99.90
19330;DHT22;9799;48.214;16.388;2024-03-22T05:33:19;12.50;99.90
19330;DHT22;9799;48.214;16.388;2024-03-22T05:36:40;12.50;99.90
19330;DHT22;9799;48.214;16.388;2024-03-22T05:40:02;12.40;99.90
19330;DHT22;9799;48.214;16.388;2024-03-22T05:43:24;12.40;99.90
19330;DHT22;9799;48.214;16.388;2024-03-22T05:46:46;12.50;99.90
19330;DHT22;9799;48.214;16.388;2024-03-22T05:50:08;12.50;99.90
19330;DHT22;9799;48.214;16.388;2024-03-22T05:53:29;12.40;99.90
19330;DHT22;9799;48.214;16.388;2024-03-22T05:56:49;12.50;99.90
19330;DHT22;9799;48.214;16.388;2024-03-22T06:00:11;12.50;99.90
19330;DHT22;9799;48.214;16.388;2024-03-22T06:03:34;12.40;99.90
19330;DHT22;9799;48.214;16.388;2024-03-22T06:06:55;12.50;99.90
19330;DHT22;9799;48.214;16.388;2024-03-22T06:10:19;12.50;99.90
19330;DHT22;9799;48.214;16.388;2024-03-22T06:13:40;12.50;99.90
19330;DHT22;9799;48.214;16.388;2024-03-22T06:17:01;12.60;99.90
19330;DHT22;9799;48.214;16.388;2024-03-22T06:20:23;12.60;99.90
19330;DHT22;9799;48.214;16.388;2024-03-22T06:23:45;12.60;99.90
19330;DHT22;9799;48.214;16.388;2024-03-22T06:27:06;12.60;99.90
19330;DHT22;9799;48.214;16.388;2024-03-22T06:30:27;12.60;99.90
19330;DHT22;9799;48.214;16.388;2024-03-22T06:33:47;12.60;99.90
19330;DHT22;9799;48.214;16.388;2024-03-22T06:37:10;12.70;99.90
19330;DHT22;9799;48.214;16.388;2024-03-22T06:40:30;12.70;99.90
19330;DHT22;9799;48.214;16.388;2024-03-22T06:43:52;12.70;99.90
19330;DHT22;9799;48.214;16.388;2024-03-22T06:47:12;12.70;99.90
19330;DHT22;9799;48.214;16.388;2024-03-22T06:50:33;12.80;99.90
19330;DHT22;9799;48.214;16.388;2024-03-22T06:53:55;12.80;99.90
19330;DHT22;9799;48.214;16.388;2024-03-22T06:57:16;12.90;99.90
19330;DHT22;9799;48.214;16.388;2024-03-22T07:00:37;12.90;99.90
19330;DHT22;9799;48.214;16.388;2024-03-22T07:03:59;12.90;99.90
19330;DHT22;9799;48.214;16.388;2024-03-22T07:07:20;13.00;99.90
19330;DHT22;9799;48.214;16.388;2024-03-22T07:10:41;13.00;99.90
19330;DHT22;9799;48.214;16.388;2024-03-22T07:14:03;12.90;99.90
19330;DHT22;9799;48.214;16.388;2024-03-22T07:17:23;13.00;99.90
19330;DHT22;9799;48.214;16.388;2024-03-22T07:20:45;13.00;99.90
19330;DHT22;9799;48.214;16.388;2024-03-22T07:24:08;13.00;99.90
19330;DHT22;9799;48.214;16.388;2024-03-22T07:27:30;13.00;99.90
19330;DHT22;9799;48.214;16.388;2024-03-22T07:30:52;13.00;99.90
19330;DHT22;9799;48.214;16.388;2024-03-22T07:34:15;13.10;99.90
19330;DHT22;9799;48.214;16.388;2024-03-22T07:37:35;13.20;99.90
19330;DHT22;9799;48.214;16.388;2024-03-22T07:40:58;13.20;99.90
19330;DHT22;9799;48.214;16.388;2024-03-22T07:44:20;13.30;99.90
19330;DHT22;9799;48.214;16.388;2024-03-22T07:47:40;13.40;99.90
19330;DHT22;9799;48.214;16.388;2024-03-22T07:51:03;13.40;99.90
19330;DHT22;9799;48.214;16.388;2024-03-22T07:54:23;13.50;99.90
19330;DHT22;9799;48.214;16.388;2024-03-22T07:57:45;13.50;99.90
19330;DHT22;9799;48.214;16.388;2024-03-22T08:01:07;13.50;99.90
19330;DHT22;9799;48.214;16.388;2024-03-22T08:04:28;13.60;99.90
19330;DHT22;9799;48.214;16.388;2024-03-22T08:07:49;13.50;99.90
19330;DHT22;9799;48.214;16.388;2024-03-22T08:11:11;13.60;99.90
19330;DHT22;9799;48.214;16.388;2024-03-22T08:14:31;13.60;99.90
19330;DHT22;9799;48.214;16.388;2024-03-22T08:17:54;13.60;99.90
19330;DHT22;9799;48.214;16.388;2024-03-22T08:21:15;13.60;99.90
19330;DHT22;9799;48.214;16.388;2024-03-22T08:24:37;13.60;99.90
19330;DHT22;9799;48.214;16.388;2024-03-22T08:27:57;13.70;99.90
19330;DHT22;9799;48.214;16.388;2024-03-22T08:31:19;13.70;99.90
19330;DHT22;9799;48.214;16.388;2024-03-22T08:34:46;13.80;99.90
19330;DHT22;9799;48.214;16.388;2024-03-22T08:38:08;13.80;99.90
19330;DHT22;9799;48.214;16.388;2024-03-22T08:41:30;13.90;99.90
19330;DHT22;9799;48.214;16.388;2024-03-22T08:44:51;13.90;99.90
19330;DHT22;9799;48.214;16.388;2024-03-22T08:48:12;13.90;99.90
19330;DHT22;9799;48.214;16.388;2024-03-22T08:51:34;14.00;99.90
19330;DHT22;9799;48.214;16.388;2024-03-22T08:54:56;14.00;99.90
19330;DHT22;9799;48.214;16.388;2024-03-22T08:58:17;14.00;99.90
19330;DHT22;9799;48.214;16.388;2024-03-22T09:01:39;14.20;99.90
19330;DHT22;9799;48.214;16.388;2024-03-22T09:05:00;14.20;99.90
19330;DHT22;9799;48.214;16.388;2024-03-22T09:08:23;14.20;99.90
19330;DHT22;9799;48.214;16.388;2024-03-22T09:11:44;14.30;99.90
19330;DHT22;9799;48.214;16.388;2024-03-22T09:15:06;14.50;99.90
19330;DHT22;9799;48.214;16.388;2024-03-22T09:18:27;14.50;99.90
19330;DHT22;9799;48.214;16.388;2024-03-22T09:21:49;14.50;99.90
19330;DHT22;9799;48.214;16.388;2024-03-22T09:25:11;14.60;99.90
19330;DHT22;9799;48.214;16.388;2024-03-22T09:28:32;14.80;99.90
19330;DHT22;9799;48.214;16.388;2024-03-22T09:31:53;14.80;99.90
19330;DHT22;9799;48.214;16.388;2024-03-22T09:35:14;14.90;99.90
19330;DHT22;9799;48.214;16.388;2024-03-22T09:38:37;14.90;99.90
19330;DHT22;9799;48.214;16.388;2024-03-22T09:42:01;15.00;99.90
19330;DHT22;9799;48.214;16.388;2024-03-22T09:45:25;15.00;99.90
19330;DHT22;9799;48.214;16.388;2024-03-22T09:48:47;15.10;99.90
19330;DHT22;9799;48.214;16.388;2024-03-22T09:52:09;15.20;99.90
19330;DHT22;9799;48.214;16.388;2024-03-22T09:55:32;15.30;99.90
19330;DHT22;9799;48.214;16.388;2024-03-22T09:58:55;15.30;99.90
19330;DHT22;9799;48.214;16.388;2024-03-22T10:02:16;15.30;99.90
19330;DHT22;9799;48.214;16.388;2024-03-22T10:05:38;15.40;99.90
19330;DHT22;9799;48.214;16.388;2024-03-22T10:08:59;15.50;99.90
19330;DHT22;9799;48.214;16.388;2024-03-22T10:12:19;15.50;99.90
19330;DHT22;9799;48.214;16.388;2024-03-22T10:15:42;15.50;99.90
19330;DHT22;9799;48.214;16.388;2024-03-22T10:19:04;15.60;99.90
19330;DHT22;9799;48.214;16.388;2024-03-22T10:22:25;15.60;99.90
19330;DHT22;9799;48.214;16.388;2024-03-22T10:25:47;15.60;99.90
19330;DHT22;9799;48.214;16.388;2024-03-22T10:29:10;15.70;99.90
19330;DHT22;9799;48.214;16.388;2024-03-22T10:32:33;15.80;99.90
19330;DHT22;9799;48.214;16.388;2024-03-22T10:35:54;15.90;99.90
19330;DHT22;9799;48.214;16.388;2024-03-22T10:39:17;16.00;99.90
19330;DHT22;9799;48.214;16.388;2024-03-22T10:42:39;16.10;99.90
19330;DHT22;9799;48.214;16.388;2024-03-22T10:46:02;16.00;99.90
19330;DHT22;9799;48.214;16.388;2024-03-22T10:49:28;16.00;99.90
19330;DHT22;9799;48.214;16.388;2024-03-22T10:52:52;16.10;99.90
19330;DHT22;9799;48.214;16.388;2024-03-22T10:56:16;16.10;99.90
19330;DHT22;9799;48.214;16.388;2024-03-22T10:59:36;16.10;99.90
19330;DHT22;9799;48.214;16.388;2024-03-22T11:02:58;16.10;99.90
19330;DHT22;9799;48.214;16.388;2024-03-22T11:06:21;16.20;99.90
19330;DHT22;9799;48.214;16.388;2024-03-22T11:09:52;16.20;99.90
19330;DHT22;9799;48.214;16.388;2024-03-22T11:13:12;16.10;99.30
19330;DHT22;9799;48.214;16.388;2024-03-22T11:16:33;16.20;99.30
19330;DHT22;9799;48.214;16.388;2024-03-22T11:19:53;16.20;98.00
19330;DHT22;9799;48.214;16.388;2024-03-22T11:23:16;16.30;98.30
19330;DHT22;9799;48.214;16.388;2024-03-22T11:26:37;16.40;98.30
19330;DHT22;9799;48.214;16.388;2024-03-22T11:29:58;16.50;97.70
19330;DHT22;9799;48.214;16.388;2024-03-22T11:33:19;16.60;97.20
19330;DHT22;9799;48.214;16.388;2024-03-22T11:36:40;16.60;97.30
19330;DHT22;9799;48.214;16.388;2024-03-22T11:40:03;16.60;96.70
19330;DHT22;9799;48.214;16.388;2024-03-22T11:43:26;16.60;96.50
19330;DHT22;9799;48.214;16.388;2024-03-22T11:46:48;16.60;96.60
19330;DHT22;9799;48.214;16.388;2024-03-22T11:50:11;16.70;96.80
19330;DHT22;9799;48.214;16.388;2024-03-22T11:53:33;16.70;95.30
19330;DHT22;9799;48.214;16.388;2024-03-22T11:56:57;16.80;94.60
19330;DHT22;9799;48.214;16.388;2024-03-22T12:00:18;16.90;94.70
19330;DHT22;9799;48.214;16.388;2024-03-22T12:03:39;16.90;93.90
19330;DHT22;9799;48.214;16.388;2024-03-22T12:07:02;16.90;93.40
19330;DHT22;9799;48.214;16.388;2024-03-22T12:10:23;17.10;93.50
19330;DHT22;9799;48.214;16.388;2024-03-22T12:13:47;17.20;93.20
19330;DHT22;9799;48.214;16.388;2024-03-22T12:17:08;17.20;93.60
19330;DHT22;9799;48.214;16.388;2024-03-22T12:20:28;17.30;93.50
19330;DHT22;9799;48.214;16.388;2024-03-22T12:23:50;17.40;93.20
19330;DHT22;9799;48.214;16.388;2024-03-22T12:27:11;17.40;93.30
19330;DHT22;9799;48.214;16.388;2024-03-22T12:30:33;17.30;92.80
19330;DHT22;9799;48.214;16.388;2024-03-22T12:33:54;17.20;92.70
19330;DHT22;9799;48.214;16.388;2024-03-22T12:37:15;17.30;93.40
19330;DHT22;9799;48.214;16.388;2024-03-22T12:40:36;17.30;92.50
19330;DHT22;9799;48.214;16.388;2024-03-22T12:43:57;17.40;92.60
19330;DHT22;9799;48.214;16.388;2024-03-22T12:47:19;17.40;92.80
19330;DHT22;9799;48.214;16.388;2024-03-22T12:50:40;17.40;93.20
19330;DHT22;9799;48.214;16.388;2024-03-22T12:54:01;17.30;92.10
19330;DHT22;9799;48.214;16.388;2024-03-22T12:57:22;17.30;92.50
19330;DHT22;9799;48.214;16.388;2024-03-22T13:00:42;17.30;91.80
19330;DHT22;9799;48.214;16.388;2024-03-22T13:04:05;17.40;91.20
19330;DHT22;9799;48.214;16.388;2024-03-22T13:07:26;17.40;92.20
19330;DHT22;9799;48.214;16.388;2024-03-22T13:10:47;17.40;91.50
19330;DHT22;9799;48.214;16.388;2024-03-22T13:14:09;17.40;92.20
19330;DHT22;9799;48.214;16.388;2024-03-22T13:17:31;17.40;91.40
19330;DHT22;9799;48.214;16.388;2024-03-22T13:20:53;17.40;91.70
19330;DHT22;9799;48.214;16.388;2024-03-22T13:24:15;17.50;90.50
19330;DHT22;9799;48.214;16.388;2024-03-22T13:27:35;17.60;90.30
19330;DHT22;9799;48.214;16.388;2024-03-22T13:31:00;17.60;91.00
19330;DHT22;9799;48.214;16.388;2024-03-22T13:34:20;17.60;90.70
19330;DHT22;9799;48.214;16.388;2024-03-22T13:37:43;17.60;90.50
19330;DHT22;9799;48.214;16.388;2024-03-22T13:41:03;17.60;90.50
19330;DHT22;9799;48.214;16.388;2024-03-22T13:44:26;17.60;91.10
19330;DHT22;9799;48.214;16.388;2024-03-22T13:47:46;17.60;91.20
19330;DHT22;9799;48.214;16.388;2024-03-22T13:51:08;17.60;90.30
19330;DHT22;9799;48.214;16.388;2024-03-22T13:54:29;17.60;90.20
19330;DHT22;9799;48.214;16.388;2024-03-22T13:57:51;17.60;90.50
19330;DHT22;9799;48.214;16.388;2024-03-22T14:01:11;17.60;90.20
19330;DHT22;9799;48.214;16.388;2024-03-22T14:04:32;17.60;90.70
19330;DHT22;9799;48.214;16.388;2024-03-22T14:07:52;17.60;91.00
19330;DHT22;9799;48.214;16.388;2024-03-22T14:11:15;17.50;89.90
19330;DHT22;9799;48.214;16.388;2024-03-22T14:14:36;17.50;89.20
19330;DHT22;9799;48.214;16.388;2024-03-22T14:17:57;17.50;90.20
19330;DHT22;9799;48.214;16.388;2024-03-22T14:21:18;17.50;88.90
19330;DHT22;9799;48.214;16.388;2024-03-22T14:24:40;17.50;89.70
19330;DHT22;9799;48.214;16.388;2024-03-22T14:28:02;17.50;88.90
19330;DHT22;9799;48.214;16.388;2024-03-22T14:31:23;17.50;88.10
19330;DHT22;9799;48.214;16.388;2024-03-22T14:34:43;17.50;89.80
19330;DHT22;9799;48.214;16.388;2024-03-22T14:38:05;17.50;88.80
19330;DHT22;9799;48.214;16.388;2024-03-22T14:41:25;17.50;88.50
19330;DHT22;9799;48.214;16.388;2024-03-22T14:44:48;17.60;89.20
19330;DHT22;9799;48.214;16.388;2024-03-22T14:48:09;17.50;88.40
19330;DHT22;9799;48.214;16.388;2024-03-22T14:51:30;17.50;87.00
19330;DHT22;9799;48.214;16.388;2024-03-22T14:54:52;17.50;87.10
19330;DHT22;9799;48.214;16.388;2024-03-22T14:58:15;17.50;87.40
19330;DHT22;9799;48.214;16.388;2024-03-22T15:01:37;17.50;85.50
19330;DHT22;9799;48.214;16.388;2024-03-22T15:04:58;17.50;84.80
19330;DHT22;9799;48.214;16.388;2024-03-22T15:08:19;17.50;84.40
19330;DHT22;9799;48.214;16.388;2024-03-22T15:11:40;17.50;83.90
19330;DHT22;9799;48.214;16.388;2024-03-22T15:15:02;17.60;84.00
19330;DHT22;9799;48.214;16.388;2024-03-22T15:18:24;17.50;83.60
19330;DHT22;9799;48.214;16.388;2024-03-22T15:21:46;17.50;86.80
19330;DHT22;9799;48.214;16.388;2024-03-22T15:25:08;17.40;83.30
19330;DHT22;9799;48.214;16.388;2024-03-22T15:28:28;17.50;83.50
19330;DHT22;9799;48.214;16.388;2024-03-22T15:31:50;17.60;82.00
19330;DHT22;9799;48.214;16.388;2024-03-22T15:35:12;17.60;85.70
19330;DHT22;9799;48.214;16.388;2024-03-22T15:38:34;17.50;82.30
19330;DHT22;9799;48.214;16.388;2024-03-22T15:41:54;17.50;82.60
19330;DHT22;9799;48.214;16.388;2024-03-22T15:45:15;17.60;82.60
19330;DHT22;9799;48.214;16.388;2024-03-22T15:48:36;17.50;81.90
19330;DHT22;9799;48.214;16.388;2024-03-22T15:51:58;17.50;81.60
19330;DHT22;9799;48.214;16.388;2024-03-22T15:55:19;17.50;81.40
19330;DHT22;9799;48.214;16.388;2024-03-22T15:58:40;17.50;81.10
19330;DHT22;9799;48.214;16.388;2024-03-22T16:02:01;17.40;81.60
19330;DHT22;9799;48.214;16.388;2024-03-22T16:05:24;17.50;80.70
19330;DHT22;9799;48.214;16.388;2024-03-22T16:08:47;17.50;81.70
19330;DHT22;9799;48.214;16.388;2024-03-22T16:12:07;17.40;84.30
19330;DHT22;9799;48.214;16.388;2024-03-22T16:15:29;17.30;83.80
19330;DHT22;9799;48.214;16.388;2024-03-22T16:18:50;17.30;84.60
19330;DHT22;9799;48.214;16.388;2024-03-22T16:22:13;17.40;83.80
19330;DHT22;9799;48.214;16.388;2024-03-22T16:25:36;17.30;84.40
19330;DHT22;9799;48.214;16.388;2024-03-22T16:28:57;17.40;84.30
19330;DHT22;9799;48.214;16.388;2024-03-22T16:32:18;17.30;84.80
19330;DHT22;9799;48.214;16.388;2024-03-22T16:35:40;17.20;86.00
19330;DHT22;9799;48.214;16.388;2024-03-22T16:39:01;17.20;86.60
19330;DHT22;9799;48.214;16.388;2024-03-22T16:42:24;17.10;87.60
19330;DHT22;9799;48.214;16.388;2024-03-22T16:45:46;17.10;87.90
19330;DHT22;9799;48.214;16.388;2024-03-22T16:49:06;17.10;88.80
19330;DHT22;9799;48.214;16.388;2024-03-22T16:52:28;17.10;89.20
19330;DHT22;9799;48.214;16.388;2024-03-22T16:55:51;17.10;90.00
19330;DHT22;9799;48.214;16.388;2024-03-22T16:59:14;17.00;90.30
19330;DHT22;9799;48.214;16.388;2024-03-22T17:02:36;17.10;90.40
19330;DHT22;9799;48.214;16.388;2024-03-22T17:05:57;17.00;90.70
19330;DHT22;9799;48.214;16.388;2024-03-22T17:09:18;17.00;91.00
19330;DHT22;9799;48.214;16.388;2024-03-22T17:12:39;17.00;91.10
19330;DHT22;9799;48.214;16.388;2024-03-22T17:16:02;17.00;91.30
19330;DHT22;9799;48.214;16.388;2024-03-22T17:19:24;17.00;91.50
19330;DHT22;9799;48.214;16.388;2024-03-22T17:22:45;17.00;91.80
19330;DHT22;9799;48.214;16.388;2024-03-22T17:26:06;17.00;91.90
19330;DHT22;9799;48.214;16.388;2024-03-22T17:29:27;17.00;91.90
19330;DHT22;9799;48.214;16.388;2024-03-22T17:32:49;17.00;92.20
19330;DHT22;9799;48.214;16.388;2024-03-22T17:36:10;16.90;92.70
19330;DHT22;9799;48.214;16.388;2024-03-22T17:39:30;16.80;92.80
19330;DHT22;9799;48.214;16.388;2024-03-22T17:42:52;16.80;93.20
19330;DHT22;9799;48.214;16.388;2024-03-22T17:46:12;16.80;92.90
19330;DHT22;9799;48.214;16.388;2024-03-22T17:49:35;16.80;93.10
19330;DHT22;9799;48.214;16.388;2024-03-22T17:52:56;16.80;93.00
19330;DHT22;9799;48.214;16.388;2024-03-22T17:56:17;16.80;93.10
19330;DHT22;9799;48.214;16.388;2024-03-22T17:59:39;16.80;93.20
19330;DHT22;9799;48.214;16.388;2024-03-22T18:03:00;16.80;93.40
19330;DHT22;9799;48.214;16.388;2024-03-22T18:06:23;16.70;93.80
19330;DHT22;9799;48.214;16.388;2024-03-22T18:09:43;16.70;93.80
19330;DHT22;9799;48.214;16.388;2024-03-22T18:13:06;16.70;93.80
19330;DHT22;9799;48.214;16.388;2024-03-22T18:16:27;16.70;94.00
19330;DHT22;9799;48.214;16.388;2024-03-22T18:19:51;16.70;94.00
19330;DHT22;9799;48.214;16.388;2024-03-22T18:23:14;16.70;94.00
19330;DHT22;9799;48.214;16.388;2024-03-22T18:26:37;16.70;94.20
19330;DHT22;9799;48.214;16.388;2024-03-22T18:29:58;16.70;94.40
19330;DHT22;9799;48.214;16.388;2024-03-22T18:33:20;16.70;94.60
19330;DHT22;9799;48.214;16.388;2024-03-22T18:36:42;16.70;94.70
19330;DHT22;9799;48.214;16.388;2024-03-22T18:40:05;16.70;94.80
19330;DHT22;9799;48.214;16.388;2024-03-22T18:43:26;16.70;95.00
19330;DHT22;9799;48.214;16.388;2024-03-22T18:46:48;16.70;95.00
19330;DHT22;9799;48.214;16.388;2024-03-22T18:50:10;16.70;95.10
19330;DHT22;9799;48.214;16.388;2024-03-22T18:53:32;16.70;95.20
19330;DHT22;9799;48.214;16.388;2024-03-22T18:56:54;16.70;95.30
19330;DHT22;9799;48.214;16.388;2024-03-22T19:00:16;16.60;95.70
19330;DHT22;9799;48.214;16.388;2024-03-22T19:03:37;16.60;95.60
19330;DHT22;9799;48.214;16.388;2024-03-22T19:06:59;16.60;95.70
19330;DHT22;9799;48.214;16.388;2024-03-22T19:10:20;16.60;95.80
19330;DHT22;9799;48.214;16.388;2024-03-22T19:13:42;16.60;96.00
19330;DHT22;9799;48.214;16.388;2024-03-22T19:17:05;16.60;96.10
19330;DHT22;9799;48.214;16.388;2024-03-22T19:20:28;16.50;96.90
19330;DHT22;9799;48.214;16.388;2024-03-22T19:23:49;16.40;97.00
19330;DHT22;9799;48.214;16.388;2024-03-22T19:27:10;16.30;97.70
19330;DHT22;9799;48.214;16.388;2024-03-22T19:30:32;16.30;97.80
19330;DHT22;9799;48.214;16.388;2024-03-22T19:33:55;16.30;97.90
19330;DHT22;9799;48.214;16.388;2024-03-22T19:37:16;16.30;98.00
19330;DHT22;9799;48.214;16.388;2024-03-22T19:40:38;16.30;98.50
19330;DHT22;9799;48.214;16.388;2024-03-22T19:43:59;16.20;98.90
19330;DHT22;9799;48.214;16.388;2024-03-22T19:47:22;16.20;99.00
19330;DHT22;9799;48.214;16.388;2024-03-22T19:50:45;16.20;99.10
19330;DHT22;9799;48.214;16.388;2024-03-22T19:54:06;16.20;99.40
19330;DHT22;9799;48.214;16.388;2024-03-22T19:57:28;16.00;99.90
19330;DHT22;9799;48.214;16.388;2024-03-22T20:00:49;15.70;99.90
19330;DHT22;9799;48.214;16.388;2024-03-22T20:04:12;15.70;99.90
19330;DHT22;9799;48.214;16.388;2024-03-22T20:07:34;15.70;99.90
19330;DHT22;9799;48.214;16.388;2024-03-22T20:10:55;15.80;99.90
19330;DHT22;9799;48.214;16.388;2024-03-22T20:14:17;15.80;99.90
19330;DHT22;9799;48.214;16.388;2024-03-22T20:17:39;15.70;99.90
19330;DHT22;9799;48.214;16.388;2024-03-22T20:21:02;15.60;99.90
19330;DHT22;9799;48.214;16.388;2024-03-22T20:24:24;15.80;99.90
19330;DHT22;9799;48.214;16.388;2024-03-22T20:27:45;15.90;99.30
19330;DHT22;9799;48.214;16.388;2024-03-22T20:31:07;15.90;99.50
19330;DHT22;9799;48.214;16.388;2024-03-22T20:34:28;15.90;99.80
